Station Historical Data
Daily Summary for April 5, 2012 Units:  Metric    English   Both
« Previous Day
Next Day »
Daily Weekly Monthly Yearly Custom
  High: Low: Average:
Temperature: 22.7 °C 12.7 °C 16.9 °C
Dew Point: 16.9 °C 9.6 °C 13.9 °C
Humidity: 95% 44% 84%
Wind Speed: 27.4km/h 0km/h 5.6km/h
Wind Gust: 37km/h - -
Wind- - WSW
Pressure: 1008.7 hPa 1002.6 hPa -
Precipitation: 0 mm    
Historical Graphs
 
 
Tabular Data for April 5, 2012
Time Temperature Dew Point Pressure Wind Wind Speed Wind Gust Humidity Rainfall Rate (Hourly) Conditions
00:00 18.4 °C 16.6 °C 1005.6 hPa SW 1.6 km/h 1.6 km/h 89% 0 mm
00:02 18.3 °C 16.5 °C 1005.3 hPa SW 1.6 km/h 1.6 km/h 89% 0 mm
00:07 18.2 °C 16.4 °C 1005.6 hPa SW 1.6 km/h 1.6 km/h 89% 0 mm
00:13 18.2 °C 16.3 °C 1005.6 hPa SW 3.2 km/h 3.2 km/h 89% 0 mm
00:18 18.1 °C 16.3 °C 1005.6 hPa SW 3.2 km/h 3.2 km/h 89% 0 mm
00:23 18.1 °C 16.3 °C 1005.6 hPa SW 1.6 km/h 3.2 km/h 89% 0 mm
00:28 18.1 °C 16.3 °C 1005.6 hPa Calm   3.2 km/h 89% 0 mm
00:33 18 °C 16.2 °C 1005.6 hPa WSW 1.6 km/h 1.6 km/h 89% 0 mm
00:38 17.9 °C 16.3 °C 1005.6 hPa Calm   1.6 km/h 90% 0 mm
00:43 17.8 °C 16.2 °C 1005.6 hPa SW 1.6 km/h 1.6 km/h 90% 0 mm
00:48 17.7 °C 16 °C 1005.6 hPa SW 1.6 km/h 1.6 km/h 90% 0 mm
00:53 17.5 °C 15.8 °C 1005.6 hPa SW 1.6 km/h 3.2 km/h 90% 0 mm
00:58 17.4 °C 15.9 °C 1005.6 hPa SSW 1.6 km/h 3.2 km/h 91% 0 mm
01:03 17.4 °C 15.9 °C 1005.6 hPa SW 1.6 km/h 3.2 km/h 91% 0 mm
01:08 17.4 °C 15.9 °C 1005.6 hPa SSW 1.6 km/h 1.6 km/h 91% 0 mm
01:13 17.4 °C 15.9 °C 1005.6 hPa SW 1.6 km/h 1.6 km/h 91% 0 mm
01:18 17.5 °C 16 °C 1005.6 hPa Calm   1.6 km/h 91% 0 mm
01:23 17.4 °C 15.9 °C 1005.6 hPa Calm     91% 0 mm
01:28 17.3 °C 15.8 °C 1005.6 hPa Calm     91% 0 mm
01:33 17.2 °C 15.7 °C 1005.3 hPa Calm     91% 0 mm
01:38 17 °C 15.5 °C 1005.3 hPa Calm     91% 0 mm
01:43 16.8 °C 15.6 °C 1005.3 hPa Calm     92% 0 mm
01:48 16.7 °C 15.4 °C 1005.3 hPa Calm     92% 0 mm
01:53 16.7 °C 15.4 °C 1005.3 hPa Calm     92% 0 mm
01:58 16.6 °C 15.4 °C 1005.3 hPa Calm     93% 0 mm
02:03 16.3 °C 15.2 °C 1005.3 hPa Calm     93% 0 mm
02:08 16.2 °C 15.1 °C 1005.3 hPa Calm     93% 0 mm
02:13 16.1 °C 14.9 °C 1005.3 hPa Calm     93% 0 mm
02:18 16.1 °C 15.1 °C 1005.3 hPa Calm     94% 0 mm
02:23 15.9 °C 15 °C 1005.3 hPa Calm     94% 0 mm
02:28 15.8 °C 14.8 °C 1005.3 hPa Calm     94% 0 mm
02:33 15.9 °C 14.9 °C 1005.3 hPa Calm     94% 0 mm
02:38 15.9 °C 15 °C 1005.3 hPa Calm     94% 0 mm
02:43 15.9 °C 15 °C 1005.3 hPa Calm     94% 0 mm
02:48 15.8 °C 14.9 °C 1005.3 hPa Calm     94% 0 mm
02:53 15.8 °C 14.9 °C 1005.3 hPa Calm     94% 0 mm
02:59 15.8 °C 14.9 °C 1005.3 hPa Calm     94% 0 mm
03:04 15.7 °C 14.8 °C 1005.3 hPa Calm     94% 0 mm
03:09 15.5 °C 14.6 °C 1005.3 hPa Calm     94% 0 mm
03:14 15.4 °C 14.4 °C 1005.3 hPa Calm     94% 0 mm
03:19 15.3 °C 14.5 °C 1005.3 hPa Calm     95% 0 mm
03:24 15.2 °C 14.4 °C 1005 hPa Calm     95% 0 mm
03:29 15.2 °C 14.4 °C 1005 hPa Calm     95% 0 mm
03:34 15.1 °C 14.3 °C 1005 hPa Calm     95% 0 mm
03:39 14.9 °C 14.2 °C 1005 hPa Calm     95% 0 mm
03:44 14.7 °C 13.9 °C 1004.6 hPa Calm     95% 0 mm
03:49 14.4 °C 13.7 °C 1004.6 hPa Calm     95% 0 mm
03:54 14.3 °C 13.6 °C 1005 hPa Calm     95% 0 mm
03:59 14.4 °C 13.6 °C 1004.6 hPa Calm     95% 0 mm
04:04 14.2 °C 13.4 °C 1004.6 hPa Calm     95% 0 mm
04:09 14 °C 13.2 °C 1004.6 hPa Calm     95% 0 mm
04:14 14.4 °C 13.7 °C 1005 hPa Calm     95% 0 mm
04:19 14.6 °C 13.8 °C 1005 hPa Calm     95% 0 mm
04:24 14.8 °C 14 °C 1005 hPa Calm     95% 0 mm
04:29 14.9 °C 14.2 °C 1005 hPa Calm     95% 0 mm
04:35 15 °C 14.2 °C 1005 hPa Calm     95% 0 mm
04:40 15 °C 14.2 °C 1005 hPa Calm     95% 0 mm
04:45 15 °C 14.2 °C 1005 hPa Calm   3.2 km/h 95% 0 mm
04:50 15.1 °C 14.3 °C 1005 hPa SW 1.6 km/h 1.6 km/h 95% 0 mm
04:55 15.1 °C 14.3 °C 1005 hPa Calm   3.2 km/h 95% 0 mm
05:00 15.2 °C 14.4 °C 1005 hPa SW 1.6 km/h 3.2 km/h 95% 0 mm
05:05 15.2 °C 14.4 °C 1005 hPa WSW 3.2 km/h 3.2 km/h 95% 0 mm
05:10 15.2 °C 14.4 °C 1005 hPa SW 1.6 km/h 1.6 km/h 95% 0 mm
05:15 15.3 °C 14.5 °C 1005.3 hPa SW 3.2 km/h 3.2 km/h 95% 0 mm
05:20 15.4 °C 14.6 °C 1005.3 hPa Calm   4.8 km/h 95% 0 mm
05:25 15.4 °C 14.7 °C 1005.3 hPa SW 3.2 km/h 4.8 km/h 95% 0 mm
05:30 15.6 °C 14.8 °C 1005.3 hPa SW 1.6 km/h 3.2 km/h 95% 0 mm
05:35 15.5 °C 14.7 °C 1005.3 hPa SW 1.6 km/h 3.2 km/h 95% 0 mm
05:40 15.5 °C 14.7 °C 1005.3 hPa SW 1.6 km/h 3.2 km/h 95% 0 mm
05:45 15.4 °C 14.7 °C 1005.3 hPa WSW 3.2 km/h 3.2 km/h 95% 0 mm
05:50 15.5 °C 14.7 °C 1005.3 hPa SW 3.2 km/h 3.2 km/h 95% 0 mm
05:55 15.3 °C 14.6 °C 1005.3 hPa Calm   1.6 km/h 95% 0 mm
06:00 15.3 °C 14.5 °C 1005.3 hPa SW 1.6 km/h 1.6 km/h 95% 0 mm
06:05 15.2 °C 14.4 °C 1005.3 hPa SW 1.6 km/h 1.6 km/h 95% 0 mm
06:10 15.2 °C 14.4 °C 1005.3 hPa SSW 1.6 km/h 3.2 km/h 95% 0 mm
06:11 15.2 °C 14.4 °C 1005.3 hPa SSW 1.6 km/h 3.2 km/h 95% 0 mm
06:16 15.1 °C 14.3 °C 1005.3 hPa Calm   1.6 km/h 95% 0 mm
06:21 15.1 °C 14.3 °C 1005.6 hPa Calm   1.6 km/h 95% 0 mm
06:26 15.1 °C 14.3 °C 1005.6 hPa Calm   1.6 km/h 95% 0 mm
06:31 15.1 °C 14.3 °C 1005.6 hPa Calm     95% 0 mm
06:36 15 °C 14.2 °C 1005.6 hPa Calm     95% 0 mm
06:41 14.9 °C 14.2 °C 1005.6 hPa Calm     95% 0 mm
06:46 15 °C 14.2 °C 1005.6 hPa Calm     95% 0 mm
06:51 15 °C 14.2 °C 1005.6 hPa Calm     95% 0 mm
06:56 15 °C 14.2 °C 1005.6 hPa Calm     95% 0 mm
07:01 15 °C 14.2 °C 1005.6 hPa Calm     95% 0 mm
07:06 14.9 °C 14.1 °C 1005.6 hPa SSE 1.6 km/h 1.6 km/h 95% 0 mm
07:12 14.9 °C 14.1 °C 1005.6 hPa Calm   1.6 km/h 95% 0 mm
07:17 14.8 °C 14.1 °C 1005.3 hPa Calm     95% 0 mm
07:22 14.8 °C 14.1 °C 1005.6 hPa Calm     95% 0 mm
07:27 14.8 °C 14.1 °C 1005.6 hPa SSE 3.2 km/h 3.2 km/h 95% 0 mm
07:32 14.8 °C 14.1 °C 1005.6 hPa Calm   3.2 km/h 95% 0 mm
07:37 14.8 °C 14 °C 1005.6 hPa SSW 1.6 km/h 1.6 km/h 95% 0 mm
07:42 14.8 °C 14 °C 1005.6 hPa Calm   1.6 km/h 95% 0 mm
07:47 14.8 °C 14 °C 1005.6 hPa WSW 1.6 km/h 3.2 km/h 95% 0 mm
07:52 14.9 °C 14.2 °C 1005.6 hPa SW 3.2 km/h 4.8 km/h 95% 0 mm
07:58 15.1 °C 14.3 °C 1006 hPa SW 4.8 km/h 4.8 km/h 95% 0 mm
08:03 15.2 °C 14.4 °C 1006 hPa South 4.8 km/h 4.8 km/h 95% 0 mm
08:04 15.2 °C 14.4 °C 1006 hPa South 4.8 km/h 4.8 km/h 95% 0 mm
08:09 15.4 °C 14.6 °C 1006.3 hPa South 4.8 km/h 6.4 km/h 95% 0 mm
08:14 15.4 °C 14.7 °C 1006 hPa South 3.2 km/h 6.4 km/h 95% 0 mm
08:19 15.6 °C 14.8 °C 1006 hPa SW 3.2 km/h 4.8 km/h 95% 0 mm
08:24 15.6 °C 14.8 °C 1005.6 hPa SSW 3.2 km/h 3.2 km/h 95% 0 mm
08:29 15.8 °C 15 °C 1006 hPa SW 3.2 km/h 4.8 km/h 95% 0 mm
08:34 15.9 °C 15.2 °C 1005.6 hPa SW 1.6 km/h 4.8 km/h 95% 0 mm
08:39 16 °C 15.2 °C 1005.6 hPa SW 3.2 km/h 6.4 km/h 95% 0 mm
08:40 16 °C 15.2 °C 1005.6 hPa SW 3.2 km/h 6.4 km/h 95% 0 mm
08:45 16 °C 15.2 °C 1005.6 hPa SW 4.8 km/h 6.4 km/h 95% 0 mm
08:50 16 °C 15.2 °C 1005.6 hPa SW 6.4 km/h 6.4 km/h 95% 0 mm
08:55 16.1 °C 15.3 °C 1005.6 hPa SW 6.4 km/h 6.4 km/h 95% 0 mm
09:00 16.1 °C 15.3 °C 1005.6 hPa SSW 3.2 km/h 4.8 km/h 95% 0 mm
09:05 16.1 °C 15.2 °C 1005.6 hPa SW 3.2 km/h 4.8 km/h 94% 0 mm
09:10 16.2 °C 15.2 °C 1005.6 hPa SW 1.6 km/h 4.8 km/h 94% 0 mm
09:15 16.2 °C 15.2 °C 1005.6 hPa SW 4.8 km/h 6.4 km/h 94% 0 mm
09:20 16.1 °C 15.2 °C 1006 hPa SW 4.8 km/h 11.3 km/h 94% 0 mm
09:25 16.1 °C 15.1 °C 1006 hPa SSW 3.2 km/h 6.4 km/h 94% 0 mm
09:30 16 °C 15.1 °C 1006 hPa SSW 6.4 km/h 9.7 km/h 94% 0 mm
09:35 16 °C 15.1 °C 1005.6 hPa SW 6.4 km/h 11.3 km/h 94% 0 mm
09:40 16.1 °C 15.1 °C 1006 hPa WSW 3.2 km/h 6.4 km/h 94% 0 mm
09:45 16.1 °C 15.2 °C 1005.6 hPa SW 4.8 km/h 8 km/h 94% 0 mm
09:51 16.1 °C 15.2 °C 1006 hPa SW 8 km/h 11.3 km/h 94% 0 mm
09:56 16.2 °C 15.2 °C 1005.6 hPa WSW 4.8 km/h 8 km/h 94% 0 mm
10:01 16.3 °C 15.3 °C 1005.6 hPa SW 6.4 km/h 8 km/h 94% 0 mm
10:06 16.3 °C 15.2 °C 1005.6 hPa South 3.2 km/h 8 km/h 93% 0 mm
10:11 16.4 °C 15.3 °C 1005.6 hPa SSW 1.6 km/h 4.8 km/h 93% 0 mm
10:16 16.6 °C 15.4 °C 1005.6 hPa SE 1.6 km/h 3.2 km/h 93% 0 mm
10:21 16.7 °C 15.6 °C 1005.6 hPa South 1.6 km/h 3.2 km/h 93% 0 mm
10:26 16.8 °C 15.7 °C 1005.3 hPa ESE 3.2 km/h 6.4 km/h 93% 0 mm
10:31 16.8 °C 15.6 °C 1005.6 hPa Calm   3.2 km/h 92% 0 mm
10:36 17.1 °C 15.7 °C 1005.6 hPa WSW 3.2 km/h 3.2 km/h 92% 0 mm
10:41 17.2 °C 15.8 °C 1005.6 hPa West 3.2 km/h 4.8 km/h 92% 0 mm
10:47 17.3 °C 16 °C 1005.6 hPa NNW 3.2 km/h 4.8 km/h 92% 0 mm
10:52 17.3 °C 15.8 °C 1005.6 hPa Calm   3.2 km/h 91% 0 mm
10:58 17.5 °C 15.8 °C 1005.6 hPa Calm   1.6 km/h 90% 0 mm
11:03 17.6 °C 15.9 °C 1005.6 hPa WNW 3.2 km/h 4.8 km/h 90% 0 mm
11:08 17.7 °C 16.2 °C 1005.6 hPa West 4.8 km/h 6.4 km/h 91% 0 mm
11:13 17.8 °C 16.2 °C 1005.6 hPa WNW 3.2 km/h 9.7 km/h 90% 0 mm
11:18 17.9 °C 16.2 °C 1006 hPa WNW 3.2 km/h 9.7 km/h 90% 0 mm
11:23 18.1 °C 16.4 °C 1006 hPa SW 6.4 km/h 8 km/h 90% 0 mm
11:28 18.2 °C 16.5 °C 1006 hPa WNW 3.2 km/h 9.7 km/h 90% 0 mm
11:33 18.3 °C 16.7 °C 1006 hPa WSW 6.4 km/h 8 km/h 90% 0 mm
11:39 18.6 °C 16.6 °C 1006.3 hPa West 1.6 km/h 8 km/h 88% 0 mm
11:44 18.7 °C 16.5 °C 1006.3 hPa WNW 8 km/h 9.7 km/h 87% 0 mm
11:49 18.9 °C 16.3 °C 1006.3 hPa WNW 4.8 km/h 8 km/h 85% 0 mm
11:54 18.9 °C 16.1 °C 1006.3 hPa NW 3.2 km/h 9.7 km/h 84% 0 mm
11:59 19.1 °C 16.3 °C 1006 hPa WSW 3.2 km/h 6.4 km/h 84% 0 mm
12:04 19.4 °C 16.4 °C 1006 hPa West 4.8 km/h 9.7 km/h 83% 0 mm
12:10 19.8 °C 16.9 °C 1006 hPa NW 4.8 km/h 4.8 km/h 83% 0 mm
12:15 20 °C 16.7 °C 1005.6 hPa West 4.8 km/h 6.4 km/h 81% 0 mm
12:20 20.2 °C 16.4 °C 1006 hPa West 3.2 km/h 9.7 km/h 79% 0 mm
12:25 20.4 °C 16.8 °C 1006 hPa SSW 6.4 km/h 6.4 km/h 80% 0 mm
12:30 20.6 °C 16.4 °C 1005.6 hPa SW 6.4 km/h 8 km/h 77% 0 mm
12:35 20.6 °C 16.2 °C 1005.6 hPa WSW 3.2 km/h 9.7 km/h 76% 0 mm
12:40 20.6 °C 16.7 °C 1005.3 hPa SW 1.6 km/h 4.8 km/h 78% 0 mm
12:45 20.8 °C 16.8 °C 1005 hPa NNW 6.4 km/h 8 km/h 78% 0 mm
12:50 20.7 °C 16.7 °C 1004.6 hPa NW 4.8 km/h 8 km/h 78% 0 mm
12:55 20.6 °C 16.7 °C 1004.6 hPa NW 3.2 km/h 4.8 km/h 78% 0 mm
13:00 20.7 °C 16.3 °C 1005 hPa West 3.2 km/h 8 km/h 76% 0 mm
13:05 20.7 °C 16.5 °C 1005.3 hPa West 8 km/h 8 km/h 77% 0 mm
13:10 20.8 °C 16.4 °C 1005.3 hPa SSW 6.4 km/h 9.7 km/h 76% 0 mm
13:15 20.8 °C 16.4 °C 1005.6 hPa WSW 8 km/h 14.5 km/h 76% 0 mm
13:20 21.1 °C 16.4 °C 1005.6 hPa SW 14.5 km/h 14.5 km/h 75% 0 mm
13:25 21.1 °C 16.2 °C 1005.6 hPa SW 8 km/h 11.3 km/h 74% 0 mm
13:30 20.9 °C 16.3 °C 1005.6 hPa WSW 9.7 km/h 9.7 km/h 75% 0 mm
13:35 20.8 °C 16 °C 1005.6 hPa WSW 8 km/h 16.1 km/h 74% 0 mm
13:40 20.6 °C 15.4 °C 1005.6 hPa SW 11.3 km/h 17.7 km/h 72% 0 mm
13:45 20.4 °C 15.2 °C 1005.6 hPa SW 12.9 km/h 19.3 km/h 72% 0 mm
13:50 20.3 °C 15.3 °C 1005.6 hPa West 6.4 km/h 14.5 km/h 73% 0 mm
13:55 20.3 °C 14.8 °C 1005.6 hPa WSW 9.7 km/h 17.7 km/h 71% 0 mm
14:00 20.2 °C 14.6 °C 1005.6 hPa WSW 11.3 km/h 16.1 km/h 70% 0 mm
14:01 20.2 °C 14.6 °C 1005.6 hPa SW 9.7 km/h 16.1 km/h 70% 0 mm
14:06 20.2 °C 15.2 °C 1005.6 hPa WSW 19.3 km/h 19.3 km/h 73% 0 mm
14:11 20.1 °C 14.7 °C 1005.3 hPa West 12.9 km/h 17.7 km/h 71% 0 mm
14:16 20.1 °C 14.9 °C 1005.3 hPa WSW 16.1 km/h 20.9 km/h 72% 0 mm
14:21 20.1 °C 14.9 °C 1005.3 hPa West 17.7 km/h 17.7 km/h 72% 0 mm
14:26 20.2 °C 14.8 °C 1005 hPa West 6.4 km/h 16.1 km/h 71% 0 mm
14:31 20.6 °C 15.6 °C 1005 hPa WSW 11.3 km/h 12.9 km/h 73% 0 mm
14:36 20.6 °C 14.7 °C 1005 hPa WSW 9.7 km/h 20.9 km/h 69% 0 mm
14:42 20.8 °C 14.3 °C 1005 hPa SW 14.5 km/h 22.5 km/h 66% 0 mm
14:47 20.9 °C 14.8 °C 1004.6 hPa SW 14.5 km/h 16.1 km/h 68% 0 mm
14:52 21.1 °C 14 °C 1004.6 hPa WSW 22.5 km/h 22.5 km/h 64% 0 mm
14:57 21.2 °C 13.8 °C 1004.3 hPa West 17.7 km/h 17.7 km/h 63% 0 mm
15:02 21.3 °C 13.8 °C 1004.3 hPa WNW 8 km/h 17.7 km/h 62% 0 mm
15:07 21.3 °C 14.3 °C 1004.3 hPa South 6.4 km/h 19.3 km/h 64% 0 mm
15:12 21.2 °C 13.2 °C 1003.9 hPa WNW 11.3 km/h 24.1 km/h 60% 0 mm
15:17 21.3 °C 13 °C 1004.3 hPa WNW 12.9 km/h 14.5 km/h 59% 0 mm
15:22 21.3 °C 13.3 °C 1004.3 hPa West 11.3 km/h 17.7 km/h 60% 0 mm
15:27 21.3 °C 13.8 °C 1004.3 hPa WSW 9.7 km/h 24.1 km/h 62% 0 mm
15:32 21.3 °C 12.7 °C 1003.9 hPa West 9.7 km/h 20.9 km/h 58% 0 mm
15:38 21.5 °C 13.4 °C 1004.3 hPa West 12.9 km/h 24.1 km/h 60% 0 mm
15:43 21.4 °C 12.3 °C 1003.9 hPa WNW 11.3 km/h 19.3 km/h 56% 0 mm
15:48 21.4 °C 13.1 °C 1003.6 hPa WNW 12.9 km/h 16.1 km/h 59% 0 mm
15:53 21.4 °C 12.8 °C 1003.6 hPa WNW 6.4 km/h 22.5 km/h 58% 0 mm
15:58 21.6 °C 12.7 °C 1003.6 hPa SW 12.9 km/h 16.1 km/h 57% 0 mm
16:03 21.8 °C 12.1 °C 1003.6 hPa West 4.8 km/h 12.9 km/h 54% 0 mm
16:08 21.9 °C 13 °C 1003.3 hPa WNW 9.7 km/h 12.9 km/h 57% 0 mm
16:13 21.9 °C 11.1 °C 1003.3 hPa West 8 km/h 14.5 km/h 50% 0 mm
16:18 22 °C 12.3 °C 1002.9 hPa WNW 11.3 km/h 12.9 km/h 54% 0 mm
16:23 21.8 °C 11.8 °C 1003.3 hPa WNW 4.8 km/h 9.7 km/h 53% 0 mm
16:28 21.5 °C 10.3 °C 1002.9 hPa West 6.4 km/h 12.9 km/h 49% 0 mm
16:33 21.7 °C 10.5 °C 1002.9 hPa West 4.8 km/h 11.3 km/h 49% 0 mm
16:38 22.4 °C 11.2 °C 1002.9 hPa West 3.2 km/h 6.4 km/h 49% 0 mm
16:43 22.3 °C 10.5 °C 1002.9 hPa SW 4.8 km/h 9.7 km/h 47% 0 mm
16:48 22.5 °C 10.9 °C 1002.6 hPa SW 4.8 km/h 9.7 km/h 48% 0 mm
16:54 22.6 °C 11.6 °C 1002.6 hPa SSW 6.4 km/h 8 km/h 50% 0 mm
16:59 22.7 °C 11.2 °C 1002.6 hPa WSW 1.6 km/h 4.8 km/h 48% 0 mm
17:04 22.7 °C 9.8 °C 1002.9 hPa SW 3.2 km/h 6.4 km/h 44% 0 mm
17:09 22.4 °C 9.6 °C 1002.9 hPa West 9.7 km/h 14.5 km/h 44% 0 mm
17:14 22.6 °C 10.1 °C 1002.9 hPa SSE 6.4 km/h 9.7 km/h 45% 0 mm
17:19 22.5 °C 10.7 °C 1002.9 hPa WNW 4.8 km/h 9.7 km/h 47% 0 mm
17:24 21.8 °C 10.3 °C 1003.3 hPa WSW 6.4 km/h 14.5 km/h 48% 0 mm
17:29 21.4 °C 10.6 °C 1003.3 hPa WSW 8 km/h 12.9 km/h 50% 0 mm
17:34 21.2 °C 10.7 °C 1003.3 hPa SW 14.5 km/h 14.5 km/h 51% 0 mm
17:39 20.9 °C 10.7 °C 1003.3 hPa WNW 12.9 km/h 17.7 km/h 52% 0 mm
17:44 20.8 °C 10.3 °C 1003.3 hPa West 6.4 km/h 11.3 km/h 51% 0 mm
17:49 20.6 °C 10.1 °C 1003.6 hPa West 9.7 km/h 11.3 km/h 51% 0 mm
17:54 20.5 °C 10.3 °C 1003.6 hPa West 12.9 km/h 17.7 km/h 52% 0 mm
17:59 20.3 °C 10.4 °C 1003.6 hPa WSW 8 km/h 11.3 km/h 53% 0 mm
18:04 20.2 °C 10.6 °C 1003.6 hPa WSW 12.9 km/h 14.5 km/h 54% 0 mm
18:09 20.1 °C 10.2 °C 1003.6 hPa WSW 6.4 km/h 16.1 km/h 53% 0 mm
18:14 19.9 °C 10.4 °C 1003.6 hPa WSW 12.9 km/h 12.9 km/h 54% 0 mm
18:19 19.8 °C 10.6 °C 1003.6 hPa West 4.8 km/h 8 km/h 55% 0 mm
18:24 19.7 °C 10.4 °C 1003.6 hPa WNW 9.7 km/h 9.7 km/h 55% 0 mm
18:29 19.6 °C 10.6 °C 1003.9 hPa WNW 8 km/h 19.3 km/h 56% 0 mm
18:35 18.5 °C 11.8 °C 1004.3 hPa WNW 25.7 km/h 27.4 km/h 65% 0 mm
18:40 17.1 °C 13.2 °C 1004.3 hPa WNW 14.5 km/h 33.8 km/h 78% 0 mm
18:45 16.3 °C 12.8 °C 1004.6 hPa NW 22.5 km/h 32.2 km/h 80% 0 mm
18:50 15.8 °C 12.4 °C 1004.6 hPa NW 27.4 km/h 37 km/h 80% 0 mm
18:55 15.5 °C 12.3 °C 1004.6 hPa NNW 22.5 km/h 32.2 km/h 81% 0 mm
19:00 15.3 °C 12.3 °C 1004.6 hPa NW 22.5 km/h 29 km/h 82% 0 mm
19:05 15.3 °C 12.2 °C 1004.6 hPa NW 14.5 km/h 33.8 km/h 82% 0 mm
19:10 15.2 °C 12.2 °C 1004.6 hPa NNW 27.4 km/h 27.4 km/h 82% 0 mm
19:15 15.2 °C 12.5 °C 1004.6 hPa NW 24.1 km/h 30.6 km/h 84% 0 mm
19:20 15 °C 12.5 °C 1004.6 hPa NW 12.9 km/h 25.7 km/h 85% 0 mm
19:25 14.7 °C 12.4 °C 1004.6 hPa NW 19.3 km/h 25.7 km/h 86% 0 mm
19:30 14.7 °C 12.5 °C 1004.6 hPa NNW 14.5 km/h 22.5 km/h 87% 0 mm
19:35 14.6 °C 12.7 °C 1004.6 hPa North 14.5 km/h 16.1 km/h 88% 0 mm
19:40 14.6 °C 12.7 °C 1004.6 hPa NNW 19.3 km/h 27.4 km/h 88% 0 mm
19:45 14.6 °C 12.7 °C 1004.6 hPa North 20.9 km/h 20.9 km/h 88% 0 mm
19:46 14.6 °C 12.6 °C 1004.6 hPa NNW 17.7 km/h 20.9 km/h 88% 0 mm
19:51 14.4 °C 12.5 °C 1004.6 hPa NNE 11.3 km/h 24.1 km/h 88% 0 mm
19:56 14.3 °C 12.6 °C 1004.6 hPa NNE 11.3 km/h 20.9 km/h 89% 0 mm
20:01 14.2 °C 12.6 °C 1004.6 hPa NNW 6.4 km/h 20.9 km/h 90% 0 mm
20:06 14.1 °C 12.5 °C 1005 hPa NNW 11.3 km/h 25.7 km/h 90% 0 mm
20:11 14 °C 12.4 °C 1005 hPa NNW 11.3 km/h 24.1 km/h 90% 0 mm
20:17 14 °C 12.6 °C 1005 hPa NNW 16.1 km/h 20.9 km/h 91% 0 mm
20:22 13.9 °C 12.5 °C 1005 hPa NNE 8 km/h 19.3 km/h 91% 0 mm
20:27 13.9 °C 12.4 °C 1005 hPa NNE 8 km/h 12.9 km/h 91% 0 mm
20:32 13.8 °C 12.4 °C 1005 hPa NNW 8 km/h 12.9 km/h 91% 0 mm
20:37 13.8 °C 12.3 °C 1005.3 hPa NW 9.7 km/h 19.3 km/h 91% 0 mm
20:42 13.7 °C 12.3 °C 1005.3 hPa North 6.4 km/h 19.3 km/h 91% 0 mm
20:47 13.7 °C 12.1 °C 1005.6 hPa NNE 9.7 km/h 17.7 km/h 90% 0 mm
20:52 13.7 °C 12.1 °C 1005.6 hPa NNW 14.5 km/h 19.3 km/h 90% 0 mm
20:53 13.7 °C 12.1 °C 1005.6 hPa North 6.4 km/h 19.3 km/h 90% 0 mm
20:58 13.6 °C 12 °C 1005.6 hPa NNW 17.7 km/h 17.7 km/h 90% 0 mm
21:03 13.6 °C 12 °C 1006 hPa NW 9.7 km/h 19.3 km/h 90% 0 mm
21:08 13.6 °C 11.9 °C 1006 hPa NNW 4.8 km/h 8 km/h 90% 0 mm
21:13 13.4 °C 12 °C 1006 hPa NW 8 km/h 16.1 km/h 91% 0 mm
21:18 13.4 °C 12 °C 1006 hPa NNW 1.6 km/h 12.9 km/h 91% 0 mm
21:24 13.4 °C 11.9 °C 1006 hPa North 1.6 km/h 9.7 km/h 91% 0 mm
21:29 13.3 °C 11.8 °C 1006.3 hPa NNW 4.8 km/h 9.7 km/h 91% 0 mm
21:34 13.2 °C 11.8 °C 1006.3 hPa NNW 3.2 km/h 8 km/h 91% 0 mm
21:39 13.2 °C 11.9 °C 1006.3 hPa NNE 4.8 km/h 4.8 km/h 92% 0 mm
21:44 13.1 °C 11.8 °C 1006.7 hPa North 4.8 km/h 6.4 km/h 92% 0 mm
21:49 13.2 °C 11.9 °C 1006.7 hPa NNE 8 km/h 9.7 km/h 92% 0 mm
21:54 13.3 °C 12 °C 1006.7 hPa NE 4.8 km/h 12.9 km/h 92% 0 mm
22:00 13.4 °C 12.1 °C 1007 hPa NNE 3.2 km/h 12.9 km/h 92% 0 mm
22:05 13.4 °C 12.2 °C 1007 hPa NNW 6.4 km/h 11.3 km/h 92% 0 mm
22:10 13.4 °C 12 °C 1007 hPa NNE 8 km/h 17.7 km/h 91% 0 mm
22:15 13.4 °C 12 °C 1007.3 hPa North 8 km/h 14.5 km/h 91% 0 mm
22:20 13.3 °C 11.7 °C 1007.3 hPa WNW 4.8 km/h 11.3 km/h 90% 0 mm
22:25 13.3 °C 11.8 °C 1007.3 hPa North 6.4 km/h 12.9 km/h 91% 0 mm
22:30 13.2 °C 11.8 °C 1007.3 hPa NW 3.2 km/h 11.3 km/h 91% 0 mm
22:36 13.3 °C 11.8 °C 1007.7 hPa North 6.4 km/h 9.7 km/h 91% 0 mm
22:41 13.3 °C 11.7 °C 1007.7 hPa NW 9.7 km/h 9.7 km/h 90% 0 mm
22:46 13.3 °C 11.7 °C 1007.7 hPa NNW 4.8 km/h 14.5 km/h 90% 0 mm
22:51 13.2 °C 11.4 °C 1007.7 hPa NNW 6.4 km/h 12.9 km/h 89% 0 mm
22:57 13.2 °C 11.4 °C 1007.7 hPa NNW 8 km/h 11.3 km/h 89% 0 mm
23:02 13.2 °C 11.6 °C 1008 hPa North 6.4 km/h 9.7 km/h 90% 0 mm
23:07 13.2 °C 11.6 °C 1008 hPa NNW 6.4 km/h 9.7 km/h 90% 0 mm
23:12 13.2 °C 11.6 °C 1008 hPa North 4.8 km/h 9.7 km/h 90% 0 mm
23:17 13.2 °C 11.6 °C 1008 hPa NW 3.2 km/h 9.7 km/h 90% 0 mm
23:22 13.1 °C 11.5 °C 1008 hPa NNE 4.8 km/h 16.1 km/h 90% 0 mm
23:27 13.1 °C 11.4 °C 1008 hPa North 4.8 km/h 11.3 km/h 90% 0 mm
23:33 13 °C 11.4 °C 1008.4 hPa North 6.4 km/h 12.9 km/h 90% 0 mm
23:38 12.9 °C 11.3 °C 1008.4 hPa NW 9.7 km/h 12.9 km/h 90% 0 mm
23:43 12.9 °C 11.3 °C 1008.4 hPa NW 9.7 km/h 16.1 km/h 90% 0 mm
23:48 12.8 °C 11.2 °C 1008.7 hPa NW 8 km/h 16.1 km/h 90% 0 mm
23:50 12.7 °C 11.1 °C 1008.7 hPa North 8 km/h 16.1 km/h 90% 0 mm
23:56 12.7 °C 11.2 °C 1008.7 hPa NNE 11.3 km/h 14.5 km/h 91% 0 mm
Compliments of Weather Underground